| time (UTC) | temp F | wind direction | speed MPH | gust MPH | rain 1hr in | rain 24hr in | rain mn in | humidity % | barometer mb |
| 20260507051305 | 42 | 0 | 0.0 | 2.0 | 0.00 | 0.00 | 0.00 | 49 | 1024.8 |
| 20260507050305 | 43 | 0 | 0.0 | 2.0 | 0.00 | 0.00 | 0.00 | 48 | 1024.5 |
| 20260507045805 | 43 | 0 | 0.0 | 2.0 | 0.00 | 0.00 | 0.00 | 47 | 1024.5 |
| 20260507045307 | 44 | 0 | 0.0 | 1.0 | 0.00 | 0.00 | 0.00 | 46 | 1024.4 |
| 20260507044805 | 44 | 0 | 0.0 | 0.0 | 0.00 | 0.00 | 0.00 | 45 | 1024.4 |
| 20260507043806 | 45 | 0 | 0.0 | 1.0 | 0.00 | 0.00 | 0.00 | 44 | 1024.4 |
| 20260507043305 | 45 | 0 | 0.0 | 1.0 | 0.00 | 0.00 | 0.00 | 43 | 1024.3 |
| 20260507042307 | 46 | 0 | 0.0 | 4.0 | 0.00 | 0.00 | 0.00 | 44 | 1024.1 |
| 20260507041305 | 47 | 337 | 1.0 | 4.0 | 0.00 | 0.00 | 0.00 | 42 | 1024.2 |
| 20260507040805 | 47 | 328 | 1.0 | 4.0 | 0.00 | 0.00 | 0.00 | 42 | 1024.2 |
| 20260507040305 | 48 | 0 | 0.0 | 2.0 | 0.00 | 0.00 | 0.00 | 42 | 1024.2 |
| 20260507034806 | 49 | 0 | 0.0 | 2.0 | 0.00 | 0.00 | 0.00 | 41 | 1024.1 |
| 20260507034305 | 49 | 0 | 0.0 | 3.0 | 0.00 | 0.00 | 0.00 | 40 | 1024.2 |
| 20260507033805 | 50 | 342 | 2.0 | 3.0 | 0.00 | 0.00 | 0.00 | 39 | 1024.0 |
| 20260507032306 | 54 | 339 | 2.0 | 5.0 | 0.00 | 0.00 | 0.00 | 35 | 1024.0 |
| 20260507031308 | 55 | 323 | 2.0 | 4.0 | 0.00 | 0.00 | 0.00 | 34 | 1023.9 |
| 20260507030805 | 55 | 320 | 2.0 | 4.0 | 0.00 | 0.00 | 0.00 | 33 | 1023.9 |
| 20260507024805 | 57 | 0 | 0.0 | 4.0 | 0.00 | 0.00 | 0.00 | 32 | 1023.8 |
| 20260507024305 | 57 | 320 | 1.0 | 5.0 | 0.00 | 0.00 | 0.00 | 32 | 1023.8 |
| 20260507022805 | 58 | 297 | 3.0 | 5.0 | 0.00 | 0.00 | 0.00 | 31 | 1023.3 |
| 20260507022306 | 58 | 297 | 3.0 | 7.0 | 0.00 | 0.00 | 0.00 | 31 | 1023.2 |
| 20260507021805 | 58 | 288 | 4.0 | 9.0 | 0.00 | 0.00 | 0.00 | 30 | 1023.2 |
| 20260507021304 | 59 | 286 | 4.0 | 10.0 | 0.00 | 0.00 | 0.00 | 30 | 1023.1 |
| 20260507020805 | 59 | 295 | 6.0 | 10.0 | 0.00 | 0.00 | 0.00 | 29 | 1022.5 |
| 20260507014805 | 61 | 287 | 6.0 | 12.0 | 0.00 | 0.00 | 0.00 | 28 | 1022.6 |
| 20260507013305 | 61 | 294 | 9.0 | 12.0 | 0.00 | 0.00 | 0.00 | 27 | 1022.4 |
| 20260507012805 | 61 | 275 | 9.0 | 12.0 | 0.00 | 0.00 | 0.00 | 27 | 1022.3 |
| 20260507012306 | 62 | 264 | 7.0 | 15.0 | 0.00 | 0.00 | 0.00 | 27 | 1022.4 |
| 20260507011805 | 62 | 292 | 6.0 | 16.0 | 0.00 | 0.00 | 0.00 | 26 | 1022.5 |
| 20260507010805 | 62 | 329 | 12.0 | 15.0 | 0.00 | 0.00 | 0.00 | 26 | 1022.7 |
| 20260507010305 | 62 | 298 | 11.0 | 14.0 | 0.00 | 0.00 | 0.00 | 26 | 1022.7 |
| 20260507005805 | 62 | 284 | 3.0 | 14.0 | 0.00 | 0.00 | 0.00 | 26 | 1022.6 |
| 20260507005306 | 62 | 300 | 10.0 | 17.0 | 0.00 | 0.00 | 0.00 | 26 | 1022.6 |
| 20260507004804 | 62 | 306 | 13.0 | 18.0 | 0.00 | 0.00 | 0.00 | 26 | 1022.6 |
| 20260507003805 | 63 | 267 | 8.0 | 15.0 | 0.00 | 0.00 | 0.00 | 25 | 1022.5 |
| 20260507003304 | 63 | 333 | 11.0 | 15.0 | 0.00 | 0.01 | 0.00 | 26 | 1022.5 |
| 20260507002804 | 63 | 307 | 8.0 | 16.0 | 0.00 | 0.01 | 0.00 | 26 | 1021.8 |
| 20260507002306 | 63 | 326 | 2.0 | 16.0 | 0.00 | 0.01 | 0.00 | 25 | 1021.8 |
| 20260507001806 | 63 | 333 | 3.0 | 15.0 | 0.00 | 0.01 | 0.00 | 25 | 1021.9 |
| 20260507001305 | 63 | 340 | 5.0 | 16.0 | 0.00 | 0.01 | 0.00 | 25 | 1021.9 |
| 20260507000805 | 64 | 301 | 9.0 | 17.0 | 0.00 | 0.01 | 0.00 | 24 | 1021.9 |
| 20260506235340 | 64 | 294 | 15.0 | 20.0 | 0.00 | 0.01 | 0.00 | 25 | 1022.0 |
| 20260506234840 | 63 | 329 | 7.0 | 16.0 | 0.00 | 0.01 | 0.00 | 24 | 1021.9 |
| 20260506233841 | 63 | 292 | 10.0 | 16.0 | 0.00 | 0.01 | 0.00 | 24 | 1022.0 |
| 20260506233216 | 64 | 293 | 7.0 | 19.0 | 0.00 | 0.01 | 0.00 | 24 | 1022.1 |
| 20260506232716 | 64 | 319 | 15.0 | 21.0 | 0.00 | 0.01 | 0.00 | 24 | 1022.3 |
| 20260506232215 | 63 | 283 | 13.0 | 21.0 | 0.00 | 0.01 | 0.00 | 23 | 1022.1 |
| 20260506230716 | 63 | 269 | 11.0 | 17.0 | 0.00 | 0.01 | 0.00 | 23 | 1022.3 |
| 20260506225715 | 65 | 311 | 17.0 | 22.0 | 0.00 | 0.01 | 0.00 | 23 | 1021.8 |
| 20260506224716 | 64 | 287 | 9.0 | 16.0 | 0.00 | 0.01 | 0.00 | 21 | 1021.7 |
| 20260506224217 | 64 | 268 | 5.0 | 18.0 | 0.00 | 0.01 | 0.00 | 22 | 1021.8 |
| 20260506223716 | 64 | 263 | 9.0 | 18.0 | 0.00 | 0.01 | 0.00 | 22 | 1021.7 |
| 20260506223216 | 65 | 326 | 9.0 | 18.0 | 0.00 | 0.01 | 0.00 | 21 | 1021.7 |
| 20260506222216 | 65 | 301 | 12.0 | 21.0 | 0.00 | 0.01 | 0.00 | 22 | 1021.9 |
| 20260506221418 | 64 | 294 | 17.0 | 20.0 | 0.00 | 0.01 | 0.00 | 21 | 1021.9 |
| 20260506221315 | 63 | 309 | 14.0 | 20.0 | 0.00 | 0.01 | 0.00 | 23 | 1022.2 |
| 20260506220917 | 63 | 309 | 14.0 | 20.0 | 0.00 | 0.01 | 0.00 | 23 | 1022.2 |
| 20260506215917 | 64 | 320 | 14.0 | 26.0 | 0.00 | 0.01 | 0.00 | 22 | 1022.4 |
| 20260506215327 | 63 | 340 | 12.0 | 21.0 | 0.00 | 0.02 | 0.00 | 24 | 1022.3 |
| 20260506214918 | 63 | 340 | 12.0 | 21.0 | 0.00 | 0.02 | 0.00 | 24 | 1022.3 |
| 20260506214316 | 63 | 306 | 17.0 | 23.0 | 0.00 | 0.02 | 0.00 | 26 | 1022.4 |
| 20260506213919 | 63 | 306 | 17.0 | 23.0 | 0.00 | 0.02 | 0.00 | 26 | 1022.4 |
| 20260506213705 | 63 | 286 | 10.0 | 22.0 | 0.00 | 0.02 | 0.00 | 26 | 1022.5 |
| 20260506213419 | 63 | 286 | 10.0 | 22.0 | 0.00 | 0.02 | 0.00 | 26 | 1022.5 |
| 20260506213221 | 63 | 295 | 16.0 | 21.0 | 0.00 | 0.02 | 0.00 | 26 | 1022.5 |
| 20260506212917 | 63 | 295 | 16.0 | 21.0 | 0.00 | 0.02 | 0.00 | 26 | 1022.5 |
| 20260506212254 | 63 | 309 | 11.0 | 26.0 | 0.00 | 0.02 | 0.00 | 25 | 1022.7 |
| 20260506211918 | 63 | 309 | 11.0 | 26.0 | 0.00 | 0.02 | 0.00 | 25 | 1022.7 |
| 20260506203918 | 62 | 329 | 10.0 | 23.0 | 0.00 | 0.02 | 0.00 | 26 | 1022.1 |
| 20260506203704 | 62 | 302 | 12.0 | 28.0 | 0.00 | 0.02 | 0.00 | 27 | 1022.1 |
| 20260506203417 | 62 | 302 | 12.0 | 28.0 | 0.00 | 0.02 | 0.00 | 27 | 1022.1 |
| 20260506201252 | 60 | 298 | 16.0 | 22.0 | 0.00 | 0.02 | 0.00 | 32 | 1022.2 |
| 20260506200948 | 60 | 298 | 16.0 | 22.0 | 0.00 | 0.02 | 0.00 | 32 | 1022.2 |
| 20260506200917 | 60 | 298 | 16.0 | 22.0 | 0.00 | 0.02 | 0.00 | 32 | 1022.2 |
| 20260506200417 | 60 | 274 | 9.0 | 19.0 | 0.00 | 0.02 | 0.00 | 29 | 1022.1 |
| 20260506195744 | 59 | 331 | 16.0 | 21.0 | 0.00 | 0.02 | 0.00 | 28 | 1022.2 |
| 20260506195417 | 59 | 331 | 16.0 | 21.0 | 0.00 | 0.02 | 0.00 | 28 | 1022.2 |
| 20260506195226 | 60 | 291 | 3.0 | 12.0 | 0.00 | 0.02 | 0.00 | 29 | 1022.3 |
| 20260506194917 | 60 | 291 | 3.0 | 12.0 | 0.00 | 0.02 | 0.00 | 29 | 1022.3 |
| 20260506191457 | 60 | 297 | 13.0 | 21.0 | 0.00 | 0.02 | 0.00 | 25 | 1022.7 |
| 20260506191205 | 60 | 297 | 13.0 | 21.0 | 0.00 | 0.02 | 0.00 | 25 | 1022.7 |
| 20260506190158 | 61 | 323 | 15.0 | 23.0 | 0.00 | 0.02 | 0.00 | 28 | 1022.7 |
| 20260506185704 | 61 | 323 | 15.0 | 23.0 | 0.00 | 0.02 | 0.00 | 28 | 1022.7 |
| 20260506185205 | 60 | 291 | 15.0 | 23.0 | 0.00 | 0.02 | 0.00 | 30 | 1022.6 |
| 20260506185019 | 59 | 291 | 9.0 | 18.0 | 0.00 | 0.02 | 0.00 | 32 | 1022.6 |
| 20260506184705 | 59 | 291 | 9.0 | 18.0 | 0.00 | 0.02 | 0.00 | 32 | 1022.6 |
| 20260506184205 | 58 | 277 | 12.0 | 18.0 | 0.00 | 0.02 | 0.00 | 29 | 1022.7 |
| 20260506183704 | 57 | 320 | 12.0 | 18.0 | 0.00 | 0.02 | 0.00 | 31 | 1022.8 |
| 20260506182014 | 58 | 314 | 9.0 | 20.0 | 0.00 | 0.02 | 0.00 | 33 | 1023.1 |
| 20260506181705 | 58 | 314 | 9.0 | 20.0 | 0.00 | 0.02 | 0.00 | 33 | 1023.1 |
| 20260506175926 | 57 | 314 | 12.0 | 19.0 | 0.00 | 0.02 | 0.00 | 35 | 1023.0 |
| 20260506175704 | 57 | 314 | 12.0 | 19.0 | 0.00 | 0.02 | 0.00 | 35 | 1023.0 |
| 20260506175503 | 56 | 327 | 7.0 | 18.0 | 0.00 | 0.02 | 0.00 | 35 | 1023.1 |
| 20260506175204 | 56 | 327 | 7.0 | 18.0 | 0.00 | 0.02 | 0.00 | 35 | 1023.1 |
| 20260506174946 | 55 | 269 | 9.0 | 20.0 | 0.00 | 0.02 | 0.00 | 37 | 1023.2 |
| 20260506174704 | 55 | 269 | 9.0 | 20.0 | 0.00 | 0.02 | 0.00 | 37 | 1023.2 |
| 20260506174205 | 55 | 253 | 11.0 | 20.0 | 0.00 | 0.02 | 0.00 | 37 | 1023.0 |
| 20260506173928 | 56 | 278 | 11.0 | 19.0 | 0.00 | 0.02 | 0.00 | 37 | 1023.2 |
| 20260506173704 | 56 | 278 | 11.0 | 19.0 | 0.00 | 0.02 | 0.00 | 37 | 1023.2 |
| 20260506172915 | 56 | 270 | 11.0 | 19.0 | 0.00 | 0.02 | 0.00 | 36 | 1022.5 |
| 20260506172704 | 56 | 270 | 11.0 | 19.0 | 0.00 | 0.02 | 0.00 | 36 | 1022.5 |
| 20260506172204 | 55 | 284 | 13.0 | 19.0 | 0.00 | 0.02 | 0.00 | 37 | 1022.5 |
| 20260506171846 | 55 | 277 | 10.0 | 19.0 | 0.00 | 0.02 | 0.00 | 36 | 1022.5 |
| 20260506171704 | 55 | 277 | 10.0 | 19.0 | 0.00 | 0.02 | 0.00 | 36 | 1022.5 |
| 20260506171205 | 55 | 313 | 12.0 | 19.0 | 0.00 | 0.02 | 0.00 | 38 | 1022.5 |
| 20260506165908 | 55 | 291 | 12.0 | 18.0 | 0.00 | 0.02 | 0.00 | 36 | 1022.4 |
| 20260506165705 | 55 | 291 | 12.0 | 18.0 | 0.00 | 0.02 | 0.00 | 36 | 1022.4 |
| 20260506165237 | 54 | 307 | 13.0 | 19.0 | 0.00 | 0.02 | 0.00 | 38 | 1022.5 |
| 20260506165204 | 54 | 307 | 13.0 | 19.0 | 0.00 | 0.02 | 0.00 | 38 | 1022.5 |
| 20260506164704 | 53 | 327 | 13.0 | 19.0 | 0.00 | 0.02 | 0.00 | 37 | 1022.6 |
| 20260506164204 | 53 | 308 | 10.0 | 19.0 | 0.00 | 0.02 | 0.00 | 38 | 1022.4 |
| 20260506164000 | 52 | 260 | 8.0 | 18.0 | 0.00 | 0.02 | 0.00 | 39 | 1022.1 |
| 20260506163704 | 52 | 260 | 8.0 | 18.0 | 0.00 | 0.02 | 0.00 | 39 | 1022.1 |
| 20260506163041 | 52 | 274 | 11.0 | 16.0 | 0.00 | 0.02 | 0.00 | 40 | 1022.3 |
| 20260506162704 | 52 | 274 | 11.0 | 16.0 | 0.00 | 0.02 | 0.00 | 40 | 1022.3 |
| 20260506162535 | 52 | 286 | 10.0 | 18.0 | 0.00 | 0.02 | 0.00 | 38 | 1022.3 |
| 20260506162204 | 52 | 286 | 10.0 | 18.0 | 0.00 | 0.02 | 0.00 | 38 | 1022.3 |
| 20260506161940 | 52 | 313 | 11.0 | 18.0 | 0.00 | 0.02 | 0.00 | 38 | 1022.1 |
| 20260506161748 | 52 | 313 | 11.0 | 18.0 | 0.00 | 0.02 | 0.00 | 38 | 1022.1 |
| 20260506161704 | 52 | 313 | 11.0 | 18.0 | 0.00 | 0.02 | 0.00 | 38 | 1022.1 |
| 20260506161204 | 52 | 304 | 12.0 | 16.0 | 0.00 | 0.02 | 0.00 | 40 | 1022.2 |
| 20260506160751 | 51 | 304 | 10.0 | 16.0 | 0.00 | 0.02 | 0.00 | 42 | 1022.3 |
| 20260506160704 | 51 | 304 | 10.0 | 16.0 | 0.00 | 0.02 | 0.00 | 42 | 1022.3 |
| 20260506155704 | 50 | 296 | 8.0 | 12.0 | 0.00 | 0.02 | 0.00 | 45 | 1022.5 |
| 20260506155204 | 49 | 285 | 6.0 | 11.0 | 0.00 | 0.02 | 0.00 | 46 | 1022.4 |
| 20260506154704 | 49 | 289 | 3.0 | 13.0 | 0.00 | 0.02 | 0.00 | 45 | 1022.4 |
| 20260506153704 | 48 | 291 | 3.0 | 11.0 | 0.00 | 0.02 | 0.00 | 46 | 1022.3 |
| 20260506153204 | 48 | 299 | 7.0 | 11.0 | 0.00 | 0.02 | 0.00 | 48 | 1022.4 |
| 20260506152204 | 46 | 282 | 4.0 | 8.0 | 0.00 | 0.02 | 0.00 | 59 | 1022.4 |
| 20260506150804 | 42 | 0 | 0.0 | 2.0 | 0.00 | 0.02 | 0.00 | 68 | 1022.5 |
| 20260506150504 | 42 | 0 | 0.0 | 2.0 | 0.00 | 0.02 | 0.00 | 68 | 1022.5 |
| 20260506145004 | 39 | 0 | 0.0 | 2.0 | 0.00 | 0.02 | 0.00 | 80 | 1022.5 |
| 20260506144403 | 38 | 0 | 0.0 | 2.0 | 0.00 | 0.02 | 0.00 | 79 | 1022.4 |
| 20260506143403 | 35 | 0 | 0.0 | 0.0 | 0.00 | 0.02 | 0.00 | 82 | 1022.2 |
| 20260506141005 | 31 | 0 | 0.0 | 0.0 | 0.00 | 0.02 | 0.00 | 85 | 1022.8 |
| 20260506140723 | 29 | 0 | 0.0 | 0.0 | 0.00 | 0.02 | 0.00 | 88 | 1022.4 |
| 20260506140505 | 29 | 0 | 0.0 | 0.0 | 0.00 | 0.02 | 0.00 | 88 | 1022.4 |
| 20260506140155 | 27 | 0 | 0.0 | 0.0 | 0.00 | 0.02 | 0.00 | 88 | 1022.4 |
| 20260506140013 | 27 | 0 | 0.0 | 0.0 | 0.00 | 0.02 | 0.00 | 88 | 1022.4 |
| 20260506134127 | 28 | 0 | 0.0 | 0.0 | 0.00 | 0.02 | 0.00 | 87 | 1022.1 |
| 20260506134005 | 28 | 0 | 0.0 | 0.0 | 0.00 | 0.02 | 0.00 | 87 | 1022.1 |
| 20260506133630 | 27 | 0 | 0.0 | 0.0 | 0.00 | 0.02 | 0.00 | 87 | 1022.4 |
| 20260506133505 | 27 | 0 | 0.0 | 0.0 | 0.00 | 0.02 | 0.00 | 87 | 1022.4 |
| 20260506133133 | 26 | 0 | 0.0 | 1.0 | 0.00 | 0.02 | 0.00 | 86 | 1022.2 |
| 20260506133005 | 26 | 0 | 0.0 | 1.0 | 0.00 | 0.02 | 0.00 | 86 | 1022.2 |
| 20260506132505 | 26 | 0 | 0.0 | 1.0 | 0.00 | 0.02 | 0.00 | 86 | 1022.1 |
| 20260506132005 | 26 | 0 | 0.0 | 1.0 | 0.00 | 0.02 | 0.00 | 87 | 1022.0 |
| 20260506131127 | 25 | 0 | 0.0 | 0.0 | 0.00 | 0.02 | 0.00 | 90 | 1022.0 |
| 20260506131005 | 25 | 0 | 0.0 | 0.0 | 0.00 | 0.02 | 0.00 | 90 | 1022.0 |
| 20260506130505 | 24 | 0 | 0.0 | 0.0 | 0.00 | 0.02 | 0.00 | 91 | 1021.9 |
| 20260506130016 | 23 | 0 | 0.0 | 0.0 | 0.00 | 0.02 | 0.00 | 91 | 1021.8 |
| 20260506125505 | 22 | 0 | 0.0 | 0.0 | 0.00 | 0.02 | 0.00 | 90 | 1021.9 |
| 20260506125005 | 22 | 0 | 0.0 | 0.0 | 0.00 | 0.02 | 0.00 | 90 | 1021.7 |
| 20260506124005 | 22 | 0 | 0.0 | 2.0 | 0.00 | 0.02 | 0.00 | 89 | 1021.7 |
| 20260506123505 | 22 | 0 | 0.0 | 2.0 | 0.00 | 0.02 | 0.00 | 89 | 1021.6 |
| 20260506123005 | 23 | 0 | 0.0 | 2.0 | 0.00 | 0.02 | 0.00 | 90 | 1021.6 |
| 20260506122536 | 23 | 0 | 0.0 | 2.0 | 0.00 | 0.02 | 0.00 | 90 | 1021.4 |
| 20260506122505 | 23 | 0 | 0.0 | 2.0 | 0.00 | 0.02 | 0.00 | 90 | 1021.4 |
| 20260506122005 | 23 | 311 | 1.0 | 2.0 | 0.00 | 0.02 | 0.00 | 90 | 1021.4 |
| 20260506121005 | 23 | 0 | 0.0 | 0.0 | 0.00 | 0.02 | 0.00 | 90 | 1021.2 |
| 20260506120006 | 24 | 0 | 0.0 | 0.0 | 0.00 | 0.02 | 0.00 | 91 | 1021.1 |
| 20260506115005 | 24 | 0 | 0.0 | 1.0 | 0.00 | 0.02 | 0.00 | 90 | 1021.0 |
| 20260506114036 | 24 | 0 | 0.0 | 0.0 | 0.00 | 0.02 | 0.00 | 90 | 1021.1 |
| 20260506114005 | 24 | 0 | 0.0 | 0.0 | 0.00 | 0.02 | 0.00 | 90 | 1021.1 |
| 20260506113505 | 25 | 0 | 0.0 | 0.0 | 0.00 | 0.02 | 0.00 | 91 | 1021.1 |
| 20260506113344 | 25 | 0 | 0.0 | 0.0 | 0.00 | 0.02 | 0.00 | 91 | 1021.6 |
| 20260506113005 | 25 | 0 | 0.0 | 0.0 | 0.00 | 0.02 | 0.00 | 91 | 1021.6 |
| 20260506112505 | 25 | 0 | 0.0 | 0.0 | 0.00 | 0.02 | 0.00 | 92 | 1021.6 |
| 20260506112005 | 24 | 0 | 0.0 | 0.0 | 0.00 | 0.02 | 0.00 | 91 | 1021.5 |
| 20260506111005 | 24 | 0 | 0.0 | 0.0 | 0.00 | 0.02 | 0.00 | 91 | 1021.3 |
| 20260506110505 | 25 | 0 | 0.0 | 0.0 | 0.00 | 0.02 | 0.00 | 90 | 1021.3 |
| 20260506110042 | 25 | 0 | 0.0 | 0.0 | 0.00 | 0.02 | 0.00 | 90 | 1021.3 |
| 20260506110006 | 25 | 0 | 0.0 | 0.0 | 0.00 | 0.02 | 0.00 | 90 | 1021.3 |
| 20260506105505 | 25 | 0 | 0.0 | 0.0 | 0.00 | 0.02 | 0.00 | 90 | 1021.2 |
| 20260506105005 | 25 | 0 | 0.0 | 0.0 | 0.00 | 0.02 | 0.00 | 90 | 1021.1 |
| 20260506104005 | 25 | 0 | 0.0 | 0.0 | 0.00 | 0.02 | 0.00 | 89 | 1021.1 |
| 20260506103130 | 25 | 0 | 0.0 | 0.0 | 0.00 | 0.02 | 0.00 | 89 | 1020.9 |
| 20260506103005 | 25 | 0 | 0.0 | 0.0 | 0.00 | 0.02 | 0.00 | 89 | 1020.9 |
| 20260506102505 | 25 | 0 | 0.0 | 0.0 | 0.00 | 0.02 | 0.00 | 90 | 1020.7 |
| 20260506101505 | 26 | 0 | 0.0 | 0.0 | 0.00 | 0.02 | 0.00 | 91 | 1020.7 |
| 20260506101005 | 26 | 0 | 0.0 | 0.0 | 0.00 | 0.02 | 0.00 | 90 | 1020.6 |
| 20260506100506 | 26 | 0 | 0.0 | 0.0 | 0.00 | 0.02 | 0.00 | 89 | 1020.5 |
| 20260506100013 | 26 | 0 | 0.0 | 0.0 | 0.00 | 0.02 | 0.00 | 89 | 1020.5 |
| 20260506095005 | 26 | 0 | 0.0 | 0.0 | 0.00 | 0.02 | 0.00 | 89 | 1020.2 |
| 20260506094505 | 26 | 0 | 0.0 | 0.0 | 0.00 | 0.02 | 0.00 | 89 | 1020.2 |
| 20260506094148 | 26 | 0 | 0.0 | 0.0 | 0.00 | 0.02 | 0.00 | 89 | 1020.1 |
| 20260506094004 | 26 | 0 | 0.0 | 0.0 | 0.00 | 0.02 | 0.00 | 89 | 1020.1 |
| 20260506093505 | 26 | 0 | 0.0 | 0.0 | 0.00 | 0.02 | 0.00 | 89 | 1020.0 |
| 20260506092645 | 27 | 0 | 0.0 | 0.0 | 0.00 | 0.02 | 0.00 | 90 | 1020.0 |
| 20260506092505 | 27 | 0 | 0.0 | 0.0 | 0.00 | 0.02 | 0.00 | 90 | 1020.0 |
| 20260506092005 | 27 | 0 | 0.0 | 0.0 | 0.00 | 0.02 | 0.00 | 90 | 1019.9 |
| 20260506091505 | 27 | 0 | 0.0 | 0.0 | 0.00 | 0.02 | 0.00 | 90 | 1020.6 |
| 20260506091005 | 26 | 0 | 0.0 | 0.0 | 0.00 | 0.02 | 0.00 | 91 | 1020.6 |
| 20260506090012 | 26 | 0 | 0.0 | 0.0 | 0.00 | 0.02 | 0.00 | 90 | 1020.5 |
| 20260506085656 | 26 | 0 | 0.0 | 0.0 | 0.00 | 0.02 | 0.00 | 90 | 1020.5 |
| 20260506085505 | 26 | 0 | 0.0 | 0.0 | 0.00 | 0.02 | 0.00 | 90 | 1020.5 |
| 20260506085211 | 27 | 0 | 0.0 | 0.0 | 0.00 | 0.02 | 0.00 | 90 | 1020.4 |
| 20260506085005 | 27 | 0 | 0.0 | 0.0 | 0.00 | 0.02 | 0.00 | 90 | 1020.4 |
| 20260506084505 | 27 | 0 | 0.0 | 0.0 | 0.00 | 0.02 | 0.00 | 90 | 1020.4 |
| 20260506084145 | 27 | 0 | 0.0 | 0.0 | 0.00 | 0.02 | 0.00 | 88 | 1020.6 |
| 20260506084005 | 27 | 0 | 0.0 | 0.0 | 0.00 | 0.02 | 0.00 | 88 | 1020.6 |
| 20260506083505 | 28 | 0 | 0.0 | 0.0 | 0.00 | 0.02 | 0.00 | 89 | 1020.6 |
| 20260506083006 | 28 | 0 | 0.0 | 2.0 | 0.00 | 0.02 | 0.00 | 89 | 1020.6 |
| 20260506082504 | 28 | 0 | 0.0 | 2.0 | 0.00 | 0.02 | 0.00 | 89 | 1020.6 |
| 20260506082005 | 28 | 0 | 0.0 | 2.0 | 0.00 | 0.02 | 0.00 | 89 | 1020.6 |
| 20260506081505 | 28 | 303 | 1.0 | 2.0 | 0.00 | 0.02 | 0.00 | 89 | 1020.6 |
| 20260506080505 | 27 | 0 | 0.0 | 3.0 | 0.00 | 0.02 | 0.00 | 89 | 1020.7 |
| 20260506073505 | 29 | 0 | 0.0 | 0.0 | 0.00 | 0.02 | 0.00 | 90 | 1020.5 |
| 20260506073259 | 29 | 0 | 0.0 | 0.0 | 0.00 | 0.02 | 0.00 | 91 | 1020.4 |
| 20260506073005 | 29 | 0 | 0.0 | 0.0 | 0.00 | 0.02 | 0.00 | 91 | 1020.4 |
| 20260506072846 | 29 | 0 | 0.0 | 0.0 | 0.00 | 0.02 | 0.00 | 90 | 1020.3 |
| 20260506072505 | 29 | 0 | 0.0 | 0.0 | 0.00 | 0.02 | 0.00 | 90 | 1020.3 |
| 20260506072005 | 29 | 0 | 0.0 | 0.0 | 0.00 | 0.02 | 0.00 | 90 | 1020.2 |
| 20260506071720 | 29 | 0 | 0.0 | 2.0 | 0.00 | 0.02 | 0.00 | 89 | 1020.2 |
| 20260506071505 | 29 | 0 | 0.0 | 2.0 | 0.00 | 0.02 | 0.00 | 89 | 1020.2 |
| 20260506070505 | 30 | 0 | 0.0 | 0.0 | 0.00 | 0.02 | 0.02 | 89 | 1020.8 |
| 20260506061442 | 31 | 0 | 0.0 | 0.0 | 0.00 | 0.02 | 0.02 | 87 | 1019.8 |
| 20260506061054 | 31 | 0 | 0.0 | 0.0 | 0.00 | 0.02 | 0.02 | 87 | 1019.8 |
| 20260506060758 | 32 | 0 | 0.0 | 0.0 | 0.00 | 0.02 | 0.02 | 87 | 1019.8 |
| 20260506060555 | 32 | 0 | 0.0 | 0.0 | 0.00 | 0.02 | 0.02 | 87 | 1019.8 |
| 20260506060234 | 32 | 0 | 0.0 | 0.0 | 0.00 | 0.02 | 0.02 | 88 | 1019.7 |